createdAt,value
2023-04-15T00:01:37.483Z,0.80
2023-04-15T00:04:05.130Z,0.78
2023-04-15T00:06:32.035Z,0.78
2023-04-15T00:08:59.130Z,0.76
2023-04-15T00:11:26.205Z,0.73
2023-04-15T00:13:53.202Z,0.71
2023-04-15T00:16:20.087Z,0.70
2023-04-15T00:18:46.990Z,0.68
2023-04-15T00:21:13.711Z,0.67
2023-04-15T00:23:40.747Z,0.64
2023-04-15T00:26:07.672Z,0.61
2023-04-15T00:28:34.475Z,0.60
2023-04-15T00:31:01.458Z,0.57
2023-04-15T00:33:28.355Z,0.57
2023-04-15T00:35:55.120Z,0.55
2023-04-15T00:38:23.458Z,0.51
2023-04-15T00:40:50.489Z,0.48
2023-04-15T00:43:17.673Z,0.48
2023-04-15T00:45:44.674Z,0.47
2023-04-15T00:48:12.047Z,0.45
2023-04-15T00:50:39.088Z,0.43
2023-04-15T00:53:05.962Z,0.40
2023-04-15T00:55:32.725Z,0.37
2023-04-15T00:57:59.580Z,0.37
2023-04-15T01:00:26.942Z,0.33
2023-04-15T01:02:53.989Z,0.30
2023-04-15T01:05:21.001Z,0.29
2023-04-15T01:07:48.947Z,0.28
2023-04-15T01:10:15.818Z,0.29
2023-04-15T01:12:43.409Z,0.28
2023-04-15T01:15:11.276Z,0.26
2023-04-15T01:17:39.758Z,0.19
2023-04-15T01:20:10.464Z,0.20
2023-04-15T01:22:37.286Z,0.16
2023-04-15T01:25:12.611Z,0.14
2023-04-15T01:27:41.176Z,0.13
2023-04-15T01:30:08.892Z,0.12
2023-04-15T01:32:35.921Z,0.12
2023-04-15T01:35:21.685Z,0.12
2023-04-15T01:37:48.845Z,0.07
2023-04-15T01:40:15.678Z,0.07
2023-04-15T01:42:42.414Z,0.08
2023-04-15T01:45:10.027Z,0.06
2023-04-15T01:47:36.737Z,0.03
2023-04-15T01:50:03.626Z,0.02
2023-04-15T01:52:30.741Z,0.02
2023-04-15T01:54:57.410Z,0.03
2023-04-15T01:57:24.116Z,-0.01
2023-04-15T01:59:51.222Z,-0.02
2023-04-15T02:02:17.998Z,-0.05
2023-04-15T02:04:44.935Z,-0.05
2023-04-15T02:07:11.652Z,-0.06
2023-04-15T02:09:38.842Z,-0.06
2023-04-15T02:12:06.202Z,-0.08
2023-04-15T02:14:32.926Z,-0.10
2023-04-15T02:17:07.204Z,-0.12
2023-04-15T02:19:36.928Z,-0.13
2023-04-15T02:22:03.729Z,-0.14
2023-04-15T02:24:31.267Z,-0.18
2023-04-15T02:26:58.060Z,-0.18
2023-04-15T02:29:25.070Z,-0.16
2023-04-15T02:31:51.843Z,-0.16
2023-04-15T02:34:18.817Z,-0.17
2023-04-15T02:36:47.624Z,-0.19
2023-04-15T02:39:16.932Z,-0.19
2023-04-15T02:41:44.014Z,-0.18
2023-04-15T02:44:13.134Z,-0.19
2023-04-15T02:46:41.318Z,-0.20
2023-04-15T02:49:08.701Z,-0.21
2023-04-15T02:51:35.700Z,-0.20
2023-04-15T02:54:02.413Z,-0.20
2023-04-15T02:56:30.340Z,-0.21
2023-04-15T02:58:57.485Z,-0.20
2023-04-15T03:01:24.383Z,-0.22
2023-04-15T03:03:51.235Z,-0.21
2023-04-15T03:06:18.071Z,-0.17
2023-04-15T03:08:45.340Z,-0.18
2023-04-15T03:11:12.819Z,-0.16
2023-04-15T03:13:41.884Z,-0.16
2023-04-15T03:16:09.305Z,-0.16
2023-04-15T03:18:36.372Z,-0.13
2023-04-15T03:21:03.282Z,-0.12
2023-04-15T03:23:31.420Z,-0.07
2023-04-15T03:25:58.899Z,-0.08
2023-04-15T03:28:25.600Z,-0.04
2023-04-15T03:30:52.422Z,-0.03
2023-04-15T03:33:19.178Z,-0.03
2023-04-15T03:35:46.017Z,0.00
2023-04-15T03:38:31.805Z,0.06
2023-04-15T03:40:58.514Z,0.07
2023-04-15T03:43:25.394Z,0.08
2023-04-15T03:45:52.201Z,0.08
2023-04-15T03:48:18.980Z,0.10
2023-04-15T03:50:46.409Z,0.14
2023-04-15T03:53:13.118Z,0.16
2023-04-15T03:55:40.075Z,0.17
2023-04-15T03:58:06.849Z,0.21
2023-04-15T04:00:33.617Z,0.23
2023-04-15T04:03:00.743Z,0.26
2023-04-15T04:05:27.613Z,0.28
2023-04-15T04:07:54.354Z,0.30
2023-04-15T04:10:21.203Z,0.34
2023-04-15T04:12:47.922Z,0.36
2023-04-15T04:15:14.626Z,0.37
2023-04-15T04:17:41.588Z,0.40
2023-04-15T04:20:08.796Z,0.41
2023-04-15T04:22:42.027Z,0.49
2023-04-15T04:25:10.340Z,0.53
2023-04-15T04:27:37.155Z,0.59
2023-04-15T04:30:05.070Z,0.61
2023-04-15T04:32:31.848Z,0.65
2023-04-15T04:34:58.509Z,0.72
2023-04-15T04:37:25.826Z,0.79
2023-04-15T04:39:52.566Z,0.84
2023-04-15T04:42:19.299Z,0.84
2023-04-15T04:44:46.488Z,0.92
2023-04-15T04:47:13.235Z,0.94
2023-04-15T04:49:40.101Z,1.00
2023-04-15T04:52:07.303Z,1.03
2023-04-15T04:54:34.035Z,1.10
2023-04-15T04:57:00.966Z,1.12
2023-04-15T04:59:28.239Z,1.20
2023-04-15T05:01:55.072Z,1.25
2023-04-15T05:04:21.805Z,1.33
2023-04-15T05:06:48.507Z,1.38
2023-04-15T05:09:15.612Z,1.45
2023-04-15T05:11:42.336Z,1.52
2023-04-15T05:14:09.045Z,1.59
2023-04-15T05:16:35.925Z,1.63
2023-04-15T05:19:03.005Z,1.67
2023-04-15T05:21:29.974Z,1.74
2023-04-15T05:23:56.646Z,1.80
2023-04-15T05:26:24.428Z,1.86
2023-04-15T05:28:51.060Z,1.96
2023-04-15T05:31:17.951Z,1.96
2023-04-15T05:33:44.728Z,1.97
2023-04-15T05:36:12.232Z,1.98
2023-04-15T05:38:38.965Z,2.05
2023-04-15T05:41:05.963Z,2.09
2023-04-15T05:43:32.663Z,2.13
2023-04-15T05:45:59.496Z,2.16
2023-04-15T05:48:26.548Z,2.22
2023-04-15T05:50:53.441Z,2.27
2023-04-15T05:53:20.792Z,2.36
2023-04-15T05:55:47.959Z,2.44
2023-04-15T05:58:14.714Z,2.51
2023-04-15T06:00:41.445Z,2.58
2023-04-15T06:03:08.360Z,2.66
2023-04-15T06:05:35.154Z,2.75
2023-04-15T06:08:02.178Z,2.86
2023-04-15T06:10:29.037Z,2.92
2023-04-15T06:12:55.860Z,2.95
2023-04-15T06:15:23.117Z,3.01
2023-04-15T06:17:49.915Z,3.08
2023-04-15T06:20:16.738Z,3.03
2023-04-15T06:22:43.811Z,3.01
2023-04-15T06:25:11.066Z,3.06
2023-04-15T06:27:37.876Z,3.15
2023-04-15T06:30:05.277Z,3.19
2023-04-15T06:32:32.873Z,3.20
2023-04-15T06:34:59.624Z,3.22
2023-04-15T06:37:26.373Z,3.29
2023-04-15T06:39:53.043Z,3.33
2023-04-15T06:42:19.770Z,3.38
2023-04-15T06:44:46.489Z,3.41
2023-04-15T06:47:14.812Z,3.43
2023-04-15T06:49:43.220Z,3.43
2023-04-15T06:52:11.095Z,3.42
2023-04-15T06:54:37.761Z,3.43
2023-04-15T06:57:04.698Z,3.43
2023-04-15T06:59:31.440Z,3.54
2023-04-15T07:01:58.311Z,3.62
2023-04-15T07:04:25.812Z,3.68
2023-04-15T07:06:52.849Z,3.74
2023-04-15T07:09:19.995Z,3.79
2023-04-15T07:11:46.744Z,3.86
2023-04-15T07:14:13.545Z,3.88
2023-04-15T07:16:40.395Z,3.90
2023-04-15T07:19:07.584Z,3.99
2023-04-15T07:21:34.327Z,4.04
2023-04-15T07:24:01.029Z,4.05
2023-04-15T07:26:27.794Z,4.11
2023-04-15T07:28:54.572Z,4.15
2023-04-15T07:31:21.513Z,4.18
2023-04-15T07:33:48.280Z,4.19
2023-04-15T07:36:15.491Z,4.22
2023-04-15T07:38:42.640Z,4.34
2023-04-15T07:41:09.562Z,4.42
2023-04-15T07:43:36.314Z,4.57
2023-04-15T07:46:03.025Z,4.65
2023-04-15T07:48:29.814Z,4.69
2023-04-15T07:50:56.689Z,4.80
2023-04-15T07:53:23.370Z,4.92
2023-04-15T07:55:50.062Z,4.98
2023-04-15T07:58:17.745Z,5.08
2023-04-15T08:00:44.837Z,5.17
2023-04-15T08:03:12.015Z,5.24
2023-04-15T08:05:38.880Z,5.22
2023-04-15T08:08:05.600Z,5.22
2023-04-15T08:10:32.389Z,5.33
2023-04-15T08:12:59.163Z,5.44
2023-04-15T08:15:28.572Z,5.49
2023-04-15T08:17:55.352Z,5.56
2023-04-15T08:20:22.139Z,5.58
2023-04-15T08:22:52.109Z,5.58
2023-04-15T08:25:20.014Z,5.63
2023-04-15T08:27:46.716Z,5.81
2023-04-15T08:30:14.247Z,5.97
2023-04-15T08:32:43.073Z,5.97
2023-04-15T08:35:10.566Z,6.09
2023-04-15T08:37:37.302Z,6.27
2023-04-15T08:40:04.898Z,6.43
2023-04-15T08:42:37.473Z,6.57
2023-04-15T08:45:05.668Z,6.64
2023-04-15T08:47:33.981Z,6.60
2023-04-15T08:50:04.499Z,6.73
2023-04-15T08:52:32.304Z,6.89
2023-04-15T08:55:01.855Z,7.08
2023-04-15T08:57:29.622Z,7.29
2023-04-15T08:59:57.396Z,7.32
2023-04-15T09:02:28.558Z,7.42
2023-04-15T09:04:55.538Z,7.57
2023-04-15T09:07:22.409Z,7.74
2023-04-15T09:09:49.574Z,7.71
2023-04-15T09:12:17.338Z,7.75
2023-04-15T09:14:46.483Z,7.83
2023-04-15T09:17:13.205Z,7.95
2023-04-15T09:19:39.940Z,8.12
2023-04-15T09:22:06.942Z,8.45
2023-04-15T09:24:42.376Z,8.77
2023-04-15T09:27:09.260Z,8.85
2023-04-15T09:29:37.333Z,8.78
2023-04-15T09:32:16.750Z,8.81
2023-04-15T09:34:43.753Z,8.80
2023-04-15T09:37:11.351Z,8.86
2023-04-15T09:40:04.820Z,8.84
2023-04-15T09:42:32.652Z,8.85
2023-04-15T09:45:12.214Z,8.85
2023-04-15T09:47:39.112Z,8.82
2023-04-15T09:50:06.460Z,8.77
2023-04-15T09:52:33.601Z,8.81
2023-04-15T09:55:01.091Z,8.85
2023-04-15T09:57:38.346Z,8.83
2023-04-15T10:00:06.909Z,8.81
2023-04-15T10:02:34.344Z,8.77
2023-04-15T10:05:02.623Z,8.61
2023-04-15T10:07:29.840Z,8.53
2023-04-15T10:09:57.367Z,8.51
2023-04-15T10:12:24.636Z,8.63
2023-04-15T10:14:59.689Z,8.73
2023-04-15T10:17:31.132Z,8.82
2023-04-15T10:20:05.003Z,8.98
2023-04-15T10:22:33.276Z,9.02
2023-04-15T10:25:01.272Z,9.05
2023-04-15T10:27:29.233Z,9.04
2023-04-15T10:29:57.250Z,9.08
2023-04-15T10:32:25.652Z,9.11
2023-04-15T10:34:54.657Z,9.14
2023-04-15T10:37:41.942Z,9.09
2023-04-15T10:40:25.364Z,9.03
2023-04-15T10:42:52.246Z,9.14
2023-04-15T10:45:19.730Z,9.22
2023-04-15T10:47:46.730Z,9.29
2023-04-15T10:50:13.501Z,9.41
2023-04-15T10:52:44.202Z,9.33
2023-04-15T10:55:11.073Z,9.31
2023-04-15T10:57:42.740Z,9.36
2023-04-15T11:00:09.726Z,9.41
2023-04-15T11:02:45.345Z,9.47
2023-04-15T11:05:13.633Z,9.56
2023-04-15T11:07:51.030Z,9.63
2023-04-15T11:10:17.749Z,9.70
2023-04-15T11:12:45.654Z,9.78
2023-04-15T11:15:34.379Z,9.83
2023-04-15T11:18:21.090Z,9.84
2023-04-15T11:20:52.360Z,9.85
2023-04-15T11:23:20.734Z,9.83
2023-04-15T11:25:48.628Z,9.82
2023-04-15T11:28:15.660Z,9.92
2023-04-15T11:30:42.869Z,10.05
2023-04-15T11:33:12.886Z,10.09
2023-04-15T11:35:42.215Z,10.16
2023-04-15T11:38:11.941Z,10.22
2023-04-15T11:40:39.779Z,10.27
2023-04-15T11:43:11.394Z,10.32
2023-04-15T11:45:48.012Z,10.38
2023-04-15T11:48:14.952Z,10.52
2023-04-15T11:50:41.858Z,10.61
2023-04-15T11:53:12.286Z,10.53
2023-04-15T11:55:50.619Z,10.38
2023-04-15T11:58:19.503Z,10.26
2023-04-15T12:00:55.340Z,10.08
2023-04-15T12:03:26.768Z,10.13
2023-04-15T12:06:27.871Z,10.35
2023-04-15T12:09:10.751Z,10.64
2023-04-15T12:11:48.353Z,10.75
2023-04-15T12:14:22.666Z,11.05
2023-04-15T12:16:54.372Z,11.68
2023-04-15T12:19:27.044Z,12.26
2023-04-15T12:22:00.775Z,12.72
2023-04-15T12:24:28.684Z,13.33
2023-04-15T12:26:57.848Z,13.83
2023-04-15T12:29:30.358Z,14.03
2023-04-15T12:32:07.131Z,14.64
2023-04-15T12:34:36.790Z,15.28
2023-04-15T12:37:06.878Z,15.03
2023-04-15T12:39:39.293Z,14.12
2023-04-15T12:42:06.911Z,13.11
2023-04-15T12:44:34.424Z,12.43
2023-04-15T12:47:01.561Z,12.06
2023-04-15T12:49:29.117Z,11.77
2023-04-15T12:51:58.011Z,11.52
2023-04-15T12:54:24.886Z,11.32
2023-04-15T12:56:52.032Z,11.15
2023-04-15T12:59:19.041Z,10.97
2023-04-15T13:01:47.588Z,10.96
2023-04-15T13:04:15.052Z,10.82
2023-04-15T13:06:42.099Z,10.78
2023-04-15T13:09:09.040Z,10.69
2023-04-15T13:11:36.640Z,10.63
2023-04-15T13:14:08.600Z,10.56
2023-04-15T13:16:35.765Z,10.51
2023-04-15T13:19:03.826Z,10.55
2023-04-15T13:21:34.983Z,10.86
2023-04-15T13:24:02.282Z,11.60
2023-04-15T13:26:29.368Z,11.93
2023-04-15T13:28:56.811Z,11.74
2023-04-15T13:31:23.631Z,11.54
2023-04-15T13:33:50.360Z,11.58
2023-04-15T13:36:17.287Z,11.45
2023-04-15T13:38:44.138Z,11.37
2023-04-15T13:41:11.015Z,11.49
2023-04-15T13:43:37.809Z,11.95
2023-04-15T13:46:05.023Z,11.82
2023-04-15T13:48:31.885Z,11.47
2023-04-15T13:50:58.625Z,11.25
2023-04-15T13:53:33.930Z,11.10
2023-04-15T13:56:09.136Z,11.03
2023-04-15T13:58:37.875Z,10.97
2023-04-15T14:01:06.306Z,10.76
2023-04-15T14:03:35.856Z,10.70
2023-04-15T14:06:03.281Z,10.69
2023-04-15T14:08:30.335Z,10.66
2023-04-15T14:10:57.887Z,10.64
2023-04-15T14:13:25.094Z,10.61
2023-04-15T14:15:52.065Z,10.69
2023-04-15T14:18:18.991Z,10.72
2023-04-15T14:20:46.305Z,10.98
2023-04-15T14:23:13.127Z,11.42
2023-04-15T14:25:40.165Z,11.84
2023-04-15T14:28:07.102Z,11.71
2023-04-15T14:30:34.142Z,11.44
2023-04-15T14:33:01.156Z,11.11
2023-04-15T14:35:28.929Z,10.81
2023-04-15T14:37:56.062Z,10.61
2023-04-15T14:40:23.258Z,10.49
2023-04-15T14:42:50.143Z,10.44
2023-04-15T14:45:17.702Z,10.43
2023-04-15T14:47:44.775Z,10.36
2023-04-15T14:50:11.731Z,10.32
2023-04-15T14:52:41.352Z,10.23
2023-04-15T14:55:12.854Z,10.14
2023-04-15T14:57:41.336Z,10.07
2023-04-15T15:00:10.700Z,10.00
2023-04-15T15:02:40.446Z,10.02
2023-04-15T15:05:10.266Z,10.01
2023-04-15T15:07:38.510Z,10.02
2023-04-15T15:10:06.244Z,10.04
2023-04-15T15:12:33.762Z,10.01
2023-04-15T15:15:02.999Z,9.98
2023-04-15T15:17:35.057Z,9.99
2023-04-15T15:20:03.618Z,9.94
2023-04-15T15:22:32.393Z,9.90
2023-04-15T15:24:59.881Z,9.84
2023-04-15T15:27:26.781Z,9.77
2023-04-15T15:29:53.680Z,9.70
2023-04-15T15:32:20.853Z,9.67
2023-04-15T15:34:47.975Z,9.63
2023-04-15T15:37:14.782Z,9.59
2023-04-15T15:39:41.513Z,9.47
2023-04-15T15:42:08.305Z,9.43
2023-04-15T15:44:36.542Z,9.35
2023-04-15T15:47:03.652Z,9.24
2023-04-15T15:49:30.774Z,9.17
2023-04-15T15:51:57.958Z,9.13
2023-04-15T15:54:25.453Z,9.06
2023-04-15T15:56:52.295Z,8.98
2023-04-15T15:59:19.186Z,8.91
2023-04-15T16:01:46.220Z,8.87
2023-04-15T16:04:13.470Z,8.86
2023-04-15T16:06:40.838Z,8.86
2023-04-15T16:09:07.713Z,8.88
2023-04-15T16:11:34.626Z,8.82
2023-04-15T16:14:01.640Z,8.78
2023-04-15T16:16:30.070Z,8.76
2023-04-15T16:18:59.759Z,8.71
2023-04-15T16:21:27.484Z,8.65
2023-04-15T16:23:54.417Z,8.59
2023-04-15T16:26:21.917Z,8.54
2023-04-15T16:28:48.838Z,8.45
2023-04-15T16:31:15.810Z,8.42
2023-04-15T16:33:42.657Z,8.39
2023-04-15T16:36:09.467Z,8.38
2023-04-15T16:38:36.791Z,8.33
2023-04-15T16:41:03.818Z,8.24
2023-04-15T16:43:30.710Z,8.20
2023-04-15T16:45:57.591Z,8.19
2023-04-15T16:48:24.360Z,8.12
2023-04-15T16:50:51.246Z,8.02
2023-04-15T16:53:18.509Z,7.93
2023-04-15T16:55:45.337Z,7.83
2023-04-15T16:58:12.190Z,7.70
2023-04-15T17:00:38.996Z,7.55
2023-04-15T17:03:06.524Z,7.42
2023-04-15T17:05:33.680Z,7.29
2023-04-15T17:08:00.806Z,7.12
2023-04-15T17:10:28.266Z,6.98
2023-04-15T17:12:59.198Z,6.89
2023-04-15T17:15:27.429Z,6.81
2023-04-15T17:18:04.845Z,6.73
2023-04-15T17:20:37.203Z,6.60
2023-04-15T17:23:05.519Z,6.50
2023-04-15T17:25:33.323Z,6.43
2023-04-15T17:28:05.585Z,6.38
2023-04-15T17:30:34.402Z,6.33
2023-04-15T17:34:00.068Z,6.27
2023-04-15T17:36:28.585Z,6.21
2023-04-15T17:39:15.681Z,6.17
2023-04-15T17:42:02.398Z,6.11
2023-04-15T17:44:49.419Z,6.12
2023-04-15T17:47:36.425Z,6.18
2023-04-15T17:50:23.277Z,6.20
2023-04-15T17:53:10.351Z,6.21
2023-04-15T17:55:58.269Z,6.21
2023-04-15T17:58:45.174Z,6.20
2023-04-15T18:01:32.382Z,6.18
2023-04-15T18:04:19.122Z,6.18
2023-04-15T18:07:06.059Z,6.15
2023-04-15T18:09:53.218Z,6.09
2023-04-15T18:12:39.951Z,6.04
2023-04-15T18:15:26.862Z,5.99
2023-04-15T18:18:13.541Z,5.92
2023-04-15T18:20:43.057Z,5.87
2023-04-15T18:23:10.218Z,5.81
2023-04-15T18:25:38.417Z,5.73
2023-04-15T18:28:05.803Z,5.65
2023-04-15T18:30:32.654Z,5.60
2023-04-15T18:32:59.609Z,5.53
2023-04-15T18:35:27.524Z,5.50
2023-04-15T18:37:54.356Z,5.42
2023-04-15T18:40:21.230Z,5.40
2023-04-15T18:42:48.231Z,5.36
2023-04-15T18:45:15.214Z,5.34
2023-04-15T18:47:42.359Z,5.31
2023-04-15T18:50:09.406Z,5.37
2023-04-15T18:52:36.280Z,5.52
2023-04-15T18:55:03.535Z,5.65
2023-04-15T18:57:35.011Z,5.75
2023-04-15T19:00:03.665Z,5.76
2023-04-15T19:02:33.639Z,5.80
2023-04-15T19:05:04.093Z,5.77
2023-04-15T19:07:32.456Z,5.76
2023-04-15T19:09:59.533Z,5.76
2023-04-15T19:12:26.758Z,5.71
2023-04-15T19:14:53.591Z,5.68
2023-04-15T19:17:20.648Z,5.62
2023-04-15T19:19:47.463Z,5.57
2023-04-15T19:22:16.588Z,5.49
2023-04-15T19:24:43.554Z,5.46
2023-04-15T19:27:10.531Z,5.41
2023-04-15T19:29:37.485Z,5.36
2023-04-15T19:32:04.373Z,5.30
2023-04-15T19:34:31.687Z,5.26
2023-04-15T19:36:58.795Z,5.23
2023-04-15T19:39:26.114Z,5.17
2023-04-15T19:41:55.443Z,5.11
2023-04-15T19:44:22.473Z,5.06
2023-04-15T19:46:51.472Z,5.01
2023-04-15T19:49:19.559Z,4.92
2023-04-15T19:51:49.439Z,4.81
2023-04-15T19:54:16.494Z,4.80
2023-04-15T19:56:43.315Z,4.78
2023-04-15T19:59:10.151Z,4.76
2023-04-15T20:01:36.987Z,4.71
2023-04-15T20:04:04.227Z,4.70
2023-04-15T20:06:31.710Z,4.66
2023-04-15T20:08:58.808Z,4.62
2023-04-15T20:12:47.818Z,4.62
2023-04-15T20:14:17.771Z,4.58
2023-04-15T20:16:44.900Z,4.55
2023-04-15T20:19:14.891Z,4.50
2023-04-15T20:21:41.956Z,4.49
2023-04-15T20:24:09.036Z,4.46
2023-04-15T20:26:36.375Z,4.44
2023-04-15T20:29:03.418Z,4.42
2023-04-15T20:31:30.637Z,4.37
2023-04-15T20:33:57.620Z,4.34
2023-04-15T20:36:24.763Z,4.30
2023-04-15T20:38:51.636Z,4.26
2023-04-15T20:41:18.391Z,4.24
2023-04-15T20:43:45.284Z,4.20
2023-04-15T20:46:20.428Z,4.17
2023-04-15T20:48:48.851Z,4.11
2023-04-15T20:51:15.743Z,4.06
2023-04-15T20:53:42.654Z,4.01
2023-04-15T20:56:09.569Z,3.95
2023-04-15T20:58:36.512Z,3.94
2023-04-15T21:01:03.456Z,3.88
2023-04-15T21:03:30.563Z,3.83
2023-04-15T21:05:57.507Z,3.80
2023-04-15T21:08:29.377Z,3.78
2023-04-15T21:10:57.027Z,3.75
2023-04-15T21:13:24.084Z,3.70
2023-04-15T21:15:54.461Z,3.65
2023-04-15T21:18:22.417Z,3.62
2023-04-15T21:20:59.051Z,3.58
2023-04-15T21:23:28.694Z,3.55
2023-04-15T21:25:56.496Z,3.49
2023-04-15T21:28:23.413Z,3.49
2023-04-15T21:30:51.491Z,3.43
2023-04-15T21:33:20.520Z,3.40
2023-04-15T21:35:47.399Z,3.33
2023-04-15T21:38:14.760Z,3.24
2023-04-15T21:40:41.621Z,3.15
2023-04-15T21:43:08.665Z,3.15
2023-04-15T21:45:36.540Z,3.13
2023-04-15T21:48:08.118Z,3.11
2023-04-15T21:50:36.928Z,3.08
2023-04-15T21:53:04.616Z,3.04
2023-04-15T21:55:31.424Z,3.01
2023-04-15T21:57:58.630Z,2.95
2023-04-15T22:00:25.674Z,2.90
2023-04-15T22:02:52.607Z,2.90
2023-04-15T22:05:19.501Z,2.88
2023-04-15T22:07:46.564Z,2.85
2023-04-15T22:10:13.384Z,2.83
2023-04-15T22:12:42.022Z,2.81
2023-04-15T22:15:09.246Z,2.76
2023-04-15T22:17:36.100Z,2.71
2023-04-15T22:20:03.966Z,2.66
2023-04-15T22:22:43.757Z,2.60
2023-04-15T22:25:12.850Z,2.57
2023-04-15T22:27:39.941Z,2.56
2023-04-15T22:30:07.904Z,2.53
2023-04-15T22:32:34.883Z,2.51
2023-04-15T22:35:02.036Z,2.47
2023-04-15T22:37:30.700Z,2.40
2023-04-15T22:39:58.067Z,2.33
2023-04-15T22:42:25.278Z,2.30
2023-04-15T22:44:52.047Z,2.28
2023-04-15T22:47:19.320Z,2.21
2023-04-15T22:49:46.222Z,2.19
2023-04-15T22:52:23.432Z,2.15
2023-04-15T22:54:56.676Z,2.09
2023-04-15T22:57:23.502Z,2.05
2023-04-15T22:59:50.546Z,2.02
2023-04-15T23:02:17.619Z,2.00
2023-04-15T23:04:45.477Z,1.99
2023-04-15T23:07:12.479Z,1.98
2023-04-15T23:09:40.152Z,1.95
2023-04-15T23:12:07.310Z,1.93
2023-04-15T23:14:34.227Z,1.93
2023-04-15T23:17:01.165Z,1.92
2023-04-15T23:19:28.222Z,1.90
2023-04-15T23:21:55.033Z,1.85
2023-04-15T23:24:21.909Z,1.81
2023-04-15T23:26:48.797Z,1.77
2023-04-15T23:29:16.001Z,1.75
2023-04-15T23:31:42.991Z,1.70
2023-04-15T23:34:10.008Z,1.67
2023-04-15T23:36:37.157Z,1.63
2023-04-15T23:39:04.038Z,1.59
2023-04-15T23:41:30.917Z,1.56
2023-04-15T23:43:57.886Z,1.53
2023-04-15T23:46:24.929Z,1.50
2023-04-15T23:48:51.729Z,1.47
2023-04-15T23:51:18.748Z,1.46
2023-04-15T23:53:45.669Z,1.44
2023-04-15T23:56:12.405Z,1.42
2023-04-15T23:58:39.159Z,1.40
